El Morro — WDE6763 — position and weather

sailwx.info

Track history (hours):
 
Tides and Currents Weather Stations Pressure Air Temp Water Temp Dewpoint Dewpoint Depression Visibility Wind Speed Wind Dir Waves Ship Positions

El Morro

Owner: AMERICAN TUGS INC., San Juan, PR. More information available from US FCC via Universal Licensing System and Coast Guard Vessel Documentation Center.

Last reported at 2017-Sep-19 02:05 UTC. Time now 2017-Sep-24 03:15 UTC.
Position N 17°50' W 066°52'.

Length 29 m; draft 3.4 m.

Type: Towing. MMSI: 367384530.

Date/timePositionNaut miles runAvg speedWind from/ knotsBaromVisibWave heightAir tempDewpointWater temp
2017-Sep-19 02:05N 17°50' W 066°52'1 8.9
2017-Sep-19 02:00N 17°50' W 066°51'4 9.1
2017-Sep-19 01:30N 17°50' W 066°47'5 9.2
2017-Sep-19 01:00N 17°50' W 066°42'5 9.3
2017-Sep-19 00:30N 17°50' W 066°37'5 9.4
2017-Sep-19 00:00N 17°50' W 066°32'4 8.8
2017-Sep-18 23:30N 17°52' W 066°28'5 9.2
2017-Sep-18 23:00N 17°52' W 066°23'5 9.2
2017-Sep-18 22:30N 17°53' W 066°18'5 9.2
2017-Sep-18 22:00N 17°54' W 066°13'4 8.2
2017-Sep-18 21:30N 17°56' W 066°09'0 0.0
2017-Sep-18 21:00N 17°56' W 066°09'0 0.0
2017-Sep-18 20:30N 17°56' W 066°09'0 0.0
2017-Sep-18 20:00N 17°56' W 066°09'0 0.1
2017-Sep-18 19:30N 17°56' W 066°09'1 1.6
2017-Sep-18 19:00N 17°55' W 066°10'3 5.2
2017-Sep-18 18:30N 17°53' W 066°08'3 0.1
2017-Sep-16 22:35N 17°53' W 066°05'1 5.5
2017-Sep-16 22:28N 17°53' W 066°06'3 5.2
2017-Sep-16 21:57N 17°54' W 066°09'2 4.6
2017-Sep-16 21:30N 17°55' W 066°10'1 1.3
2017-Sep-16 20:48N 17°56' W 066°09'0 0.0
2017-Sep-16 20:30N 17°56' W 066°09'0 0.3
2017-Sep-16 20:00N 17°56' W 066°09'0 0.0
2017-Sep-16 19:30N 17°56' W 066°09'0 0.0
2017-Sep-16 19:00N 17°56' W 066°09'0 0.0
2017-Sep-16 18:30N 17°56' W 066°09'0 0.0
2017-Sep-16 18:00N 17°56' W 066°09'0 0.0
2017-Sep-16 17:30N 17°56' W 066°09'0 0.0
2017-Sep-16 17:00N 17°56' W 066°09'0 0.0
2017-Sep-16 16:30N 17°56' W 066°09'0 0.0
2017-Sep-16 16:00N 17°56' W 066°09'0 0.0
2017-Sep-16 15:27N 17°56' W 066°09'0 0.0
2017-Sep-16 15:00N 17°56' W 066°09'0 0.1
2017-Sep-16 12:25N 17°56' W 066°09'0 0.0
2017-Sep-16 11:58N 17°56' W 066°09'0 0.0
2017-Sep-16 11:28N 17°56' W 066°09'0 0.0
2017-Sep-16 10:58N 17°56' W 066°09'0 0.0
2017-Sep-15 18:04N 17°56' W 066°09'0 0.1
2017-Sep-15 17:58N 17°56' W 066°09'0 0.0
2017-Sep-15 17:28N 17°56' W 066°09'0 0.0
2017-Sep-15 16:58N 17°56' W 066°09'0 0.0
2017-Sep-15 16:28N 17°56' W 066°09'0 0.0
2017-Sep-15 15:58N 17°56' W 066°09'0 0.0
2017-Sep-15 15:28N 17°56' W 066°09'0 0.0
2017-Sep-15 14:58N 17°56' W 066°09'0 0.0
2017-Sep-15 14:28N 17°56' W 066°09'0 0.0
2017-Sep-15 13:52N 17°56' W 066°09'0 0.5
2017-Sep-15 13:30N 17°56' W 066°09'0 0.0
2017-Sep-15 13:00N 17°56' W 066°09'0 0.0
2017-Sep-15 12:30N 17°56' W 066°09'3 5.3
2017-Sep-15 12:00N 17°54' W 066°11'4 8.2
2017-Sep-15 11:30N 17°55' W 066°16'3 5.6
2017-Sep-15 11:00N 17°57' W 066°14'0 0.2
2017-Sep-15 10:29N 17°57' W 066°14'0 0.2
2017-Sep-15 09:55N 17°57' W 066°14'0 0.0
2017-Sep-15 09:25N 17°57' W 066°14'0 0.0
2017-Sep-15 08:55N 17°57' W 066°14'0 0.0
2017-Sep-15 08:25N 17°57' W 066°14'0 0.0
2017-Sep-15 07:55N 17°57' W 066°14'0 0.0
2017-Sep-15 07:25N 17°57' W 066°14'0 0.0
2017-Sep-15 06:58N 17°57' W 066°14'0 0.0
2017-Sep-15 06:28N 17°57' W 066°14'0 0.0
2017-Sep-15 05:58N 17°57' W 066°14'0 0.0
2017-Sep-15 05:13N 17°57' W 066°14'0 0.0
2017-Sep-15 00:28N 17°57' W 066°14'0 0.4
2017-Sep-15 00:00N 17°57' W 066°13'0 0.1
2017-Sep-14 22:06N 17°57' W 066°14'0 0.5
2017-Sep-14 21:58N 17°57' W 066°14'2 3.4
2017-Sep-14 21:31N 17°55' W 066°14'1 2.6
2017-Sep-14 21:01N 17°54' W 066°14'4 7.9
2017-Sep-14 20:27N 17°56' W 066°10'1 0.3
2017-Sep-14 18:39N 17°56' W 066°09'0 1.5
2017-Sep-14 18:30N 17°56' W 066°09'0 0.1
2017-Sep-14 17:44N 17°56' W 066°09'0 0.0
2017-Sep-14 17:20N 17°56' W 066°09'0 0.0
2017-Sep-14 16:59N 17°56' W 066°09'0 0.0
2017-Sep-14 16:29N 17°56' W 066°09'0 0.0
2017-Sep-14 15:59N 17°56' W 066°09'0 0.0
2017-Sep-14 15:29N 17°56' W 066°09'0 0.0
2017-Sep-14 14:59N 17°56' W 066°09'0 0.0
2017-Sep-14 14:26N 17°56' W 066°09'0 0.1
2017-Sep-14 13:59N 17°56' W 066°09'0 0.3
2017-Sep-14 13:28N 17°56' W 066°09'0 0.0
2017-Sep-14 12:58N 17°56' W 066°09'0 0.0
2017-Sep-14 12:28N 17°56' W 066°09'0 0.0
2017-Sep-14 11:58N 17°56' W 066°09'0 0.0
2017-Sep-14 11:28N 17°56' W 066°09'0 0.0
2017-Sep-14 10:37N 17°56' W 066°09'0 0.0
2017-Sep-14 10:22N 17°56' W 066°09'0 0.0
2017-Sep-14 09:52N 17°56' W 066°09'0 0.0
2017-Sep-14 09:28N 17°56' W 066°09'0 0.0
2017-Sep-14 08:58N 17°56' W 066°09'0 0.0
2017-Sep-14 08:28N 17°56' W 066°09'0 0.0
2017-Sep-14 07:58N 17°56' W 066°09'0 0.0
2017-Sep-14 07:28N 17°56' W 066°09'0 0.0
2017-Sep-14 06:46N 17°56' W 066°09'0 0.0
2017-Sep-14 06:28N 17°56' W 066°09'0 0.0
2017-Sep-14 05:58N 17°56' W 066°09'0 0.0
2017-Sep-14 05:16N 17°56' W 066°09'0 0.0
2017-Sep-14 04:52N 17°56' W 066°09'0 0.0
2017-Sep-14 04:28N 17°56' W 066°09'0 0.0
2017-Sep-14 03:58N 17°56' W 066°09'0 0.0
2017-Sep-14 03:22N 17°56' W 066°09'0 0.0
2017-Sep-14 02:58N 17°56' W 066°09'0 0.0
2017-Sep-14 02:28N 17°56' W 066°09'0 0.0
2017-Sep-14 01:58N 17°56' W 066°09'0 0.0
2017-Sep-14 01:28N 17°56' W 066°09'0 0.0
2017-Sep-14 00:58N 17°56' W 066°09'0 0.0
2017-Sep-14 00:28N 17°56' W 066°09'0 0.0
2017-Sep-13 23:58N 17°56' W 066°09'0 0.0
2017-Sep-13 23:28N 17°56' W 066°09'3 6.2
2017-Sep-13 23:01N 17°54' W 066°12'4 8.0
2017-Sep-13 22:31N 17°55' W 066°16'3 5.8
2017-Sep-13 22:00N 17°57' W 066°13'0 0.3
2017-Sep-13 21:30N 17°57' W 066°14'1 1.4
2017-Sep-13 21:00N 17°56' W 066°14'1 3.0
2017-Sep-13 20:30N 17°56' W 066°15'2 3.6
2017-Sep-13 20:00N 17°56' W 066°17'4 8.2
2017-Sep-13 19:30N 17°54' W 066°13'4 0.6
2017-Sep-13 12:43N 17°56' W 066°09'0 0.1
2017-Sep-13 12:15N 17°56' W 066°09'2 7.8
2017-Sep-13 12:00N 17°55' W 066°11'4 8.7
2017-Sep-13 11:30N 17°55' W 066°15'3 4.9
2017-Sep-13 10:59N 17°57' W 066°13'1 1.3
2017-Sep-13 10:30N 17°56' W 066°14'2 4.6
2017-Sep-13 10:00N 17°54' W 066°15'6 0.3
2017-Sep-12 16:09N 17°56' W 066°09'1 7.4
2017-Sep-12 16:00N 17°55' W 066°10'4 8.0
2017-Sep-12 15:30N 17°54' W 066°14'1 2.3
2017-Sep-12 15:00N 17°56' W 066°14'1 1.5
2017-Sep-12 14:30N 17°56' W 066°14'1 1.2
2017-Sep-12 13:54N 17°57' W 066°14'1 3.6
2017-Sep-12 13:30N 17°56' W 066°14'1 2.6
2017-Sep-12 13:00N 17°54' W 066°14'5 0.4
2017-Sep-12 02:01N 17°56' W 066°09'0 0.0
2017-Sep-12 01:34N 17°56' W 066°09'0 4.0
2017-Sep-12 01:30N 17°56' W 066°10'4 8.2
2017-Sep-12 01:01N 17°53' W 066°13'4 8.4
2017-Sep-12 00:31N 17°53' W 066°17'4 8.2
2017-Sep-12 00:00N 17°52' W 066°22'4 8.2
2017-Sep-11 23:31N 17°52' W 066°26'4 8.1
2017-Sep-11 23:01N 17°51' W 066°30'4 7.7
2017-Sep-11 22:30N 17°51' W 066°34'4 7.6
2017-Sep-11 22:01N 17°51' W 066°38'4 8.0
2017-Sep-11 21:31N 17°50' W 066°42'4 8.1
2017-Sep-11 21:00N 17°50' W 066°46'4 0.2
2017-Sep-10 19:37N 17°50' W 066°51'1 5.3
2017-Sep-10 19:28N 17°50' W 066°50'2 5.3
2017-Sep-10 19:00N 17°50' W 066°47'3 5.1
2017-Sep-10 18:31N 17°50' W 066°45'2 4.8
2017-Sep-10 18:01N 17°51' W 066°42'2 4.9
2017-Sep-10 17:31N 17°53' W 066°40'2 4.9
2017-Sep-10 17:01N 17°54' W 066°39'2 3.4
2017-Sep-10 16:31N 17°56' W 066°38'2 3.3
2017-Sep-10 16:01N 17°58' W 066°38'1 1.5
2017-Sep-10 15:31N 17°58' W 066°37'0 0.0
2017-Sep-10 15:01N 17°58' W 066°37'1 1.4
2017-Sep-10 14:01N 17°57' W 066°38'4 7.9
2017-Sep-10 13:30N 17°54' W 066°35'4 8.7
2017-Sep-10 13:01N 17°52' W 066°31'5 9.2
2017-Sep-10 12:31N 17°52' W 066°26'5 9.0
2017-Sep-10 12:01N 17°53' W 066°22'5 9.0
2017-Sep-10 11:31N 17°53' W 066°17'4 8.9
2017-Sep-10 11:00N 17°54' W 066°12'4 7.1
2017-Sep-10 10:29N 17°56' W 066°09'0 0.0
2017-Sep-10 10:01N 17°56' W 066°09'0 0.0
2017-Sep-10 09:30N 17°56' W 066°09'0 0.0
2017-Sep-10 09:01N 17°56' W 066°09'0 0.0
2017-Sep-10 08:30N 17°56' W 066°09'0 0.0
2017-Sep-10 08:00N 17°56' W 066°09'0 0.0
2017-Sep-10 07:31N 17°56' W 066°09'0 0.0
2017-Sep-10 07:01N 17°56' W 066°09'0 0.0
2017-Sep-10 06:30N 17°56' W 066°09'0 0.0
2017-Sep-10 06:01N 17°56' W 066°09'0 0.0
2017-Sep-10 05:30N 17°56' W 066°09'0 0.0
2017-Sep-10 05:00N 17°56' W 066°09'0 0.0
2017-Sep-10 04:31N 17°56' W 066°09'0 0.0
2017-Sep-10 04:00N 17°56' W 066°09'0 0.0
2017-Sep-10 03:31N 17°56' W 066°09'0 0.0
2017-Sep-10 03:01N 17°56' W 066°09'0 0.0
2017-Sep-10 02:31N 17°56' W 066°09'0 0.0
2017-Sep-10 02:01N 17°56' W 066°09'0 0.0
2017-Sep-10 01:31N 17°56' W 066°09'0 0.0
2017-Sep-10 01:01N 17°56' W 066°09'0 0.0
2017-Sep-10 00:31N 17°56' W 066°09'0 0.0
2017-Sep-10 00:00N 17°56' W 066°09'0 0.0
2017-Sep-09 23:31N 17°56' W 066°09'0 0.0
2017-Sep-09 23:00N 17°56' W 066°09'0 0.0
2017-Sep-09 22:31N 17°56' W 066°09'0 0.0
2017-Sep-09 22:00N 17°56' W 066°09'0 0.0
2017-Sep-09 21:30N 17°56' W 066°09'0 0.0
2017-Sep-09 21:00N 17°56' W 066°09'0 0.0
2017-Sep-09 20:31N 17°56' W 066°09'0 0.0
2017-Sep-09 20:01N 17°56' W 066°09'0 0.0
2017-Sep-09 19:31N 17°56' W 066°09'0 0.0
2017-Sep-09 19:00N 17°56' W 066°09'0 0.0
2017-Sep-09 18:30N 17°56' W 066°09'0 0.0
2017-Sep-09 18:00N 17°56' W 066°09'0 0.0
2017-Sep-09 17:30N 17°56' W 066°09'0 0.0
2017-Sep-09 17:00N 17°56' W 066°09'0 0.0
2017-Sep-09 16:30N 17°56' W 066°09'0 0.0
2017-Sep-09 16:00N 17°56' W 066°09'0 0.0
2017-Sep-09 15:30N 17°56' W 066°09'0 0.0
2017-Sep-09 15:01N 17°56' W 066°09'0 0.0
2017-Sep-09 14:31N 17°56' W 066°09'0 0.0
2017-Sep-09 14:01N 17°56' W 066°09'0 0.0
2017-Sep-09 13:31N 17°56' W 066°09'0 0.0
2017-Sep-09 13:01N 17°56' W 066°09'0 0.0
2017-Sep-09 12:30N 17°56' W 066°09'0 0.0
2017-Sep-09 12:00N 17°56' W 066°09'0 0.0
2017-Sep-09 11:30N 17°56' W 066°09'0 0.0
2017-Sep-09 11:01N 17°56' W 066°09'0 0.0
2017-Sep-09 10:31N 17°56' W 066°09'0 0.0
2017-Sep-09 10:00N 17°56' W 066°09'0 0.0
2017-Sep-09 09:31N 17°56' W 066°09'0 0.0
2017-Sep-09 09:00N 17°56' W 066°09'0 0.0
2017-Sep-09 08:30N 17°56' W 066°09'0 0.0
2017-Sep-09 08:00N 17°56' W 066°09'0 0.0
2017-Sep-09 07:31N 17°56' W 066°09'0 0.0
2017-Sep-09 07:00N 17°56' W 066°09'0 0.0
2017-Sep-09 06:31N 17°56' W 066°09'0 0.0
2017-Sep-09 06:00N 17°56' W 066°09'0 0.0
2017-Sep-09 05:30N 17°56' W 066°09'0 0.0
2017-Sep-09 05:00N 17°56' W 066°09'0 0.0
2017-Sep-09 04:30N 17°56' W 066°09'0 0.0
2017-Sep-09 04:00N 17°56' W 066°09'0 0.0
2017-Sep-09 03:30N 17°56' W 066°09'0 0.0
2017-Sep-09 03:01N 17°56' W 066°09'0 0.0
2017-Sep-09 02:30N 17°56' W 066°09'  
Track history (hours):
 
Tides and Currents Weather Stations Pressure Air Temp Water Temp Dewpoint Dewpoint Depression Visibility Wind Speed Wind Dir Waves Ship Positions

El Morro

Owner: AMERICAN TUGS INC., San Juan, PR. More information available from US FCC via Universal Licensing System and Coast Guard Vessel Documentation Center.

Last reported at 2017-Sep-19 02:05 UTC. Time now 2017-Sep-24 03:15 UTC.
Position N 17°50' W 066°52'.

Length 29 m; draft 3.4 m.

Type: Towing. MMSI: 367384530.

Date/timePositionNaut miles runAvg speedWind from/ knotsBaromVisibWave heightAir tempDewpointWater temp
2017-Sep-19 02:05N 17°50' W 066°52'1 8.9
2017-Sep-19 02:00N 17°50' W 066°51'4 9.1
2017-Sep-19 01:30N 17°50' W 066°47'5 9.2
2017-Sep-19 01:00N 17°50' W 066°42'5 9.3
2017-Sep-19 00:30N 17°50' W 066°37'5 9.4
2017-Sep-19 00:00N 17°50' W 066°32'4 8.8
2017-Sep-18 23:30N 17°52' W 066°28'5 9.2
2017-Sep-18 23:00N 17°52' W 066°23'5 9.2
2017-Sep-18 22:30N 17°53' W 066°18'5 9.2
2017-Sep-18 22:00N 17°54' W 066°13'4 8.2
2017-Sep-18 21:30N 17°56' W 066°09'0 0.0
2017-Sep-18 21:00N 17°56' W 066°09'0 0.0
2017-Sep-18 20:30N 17°56' W 066°09'0 0.0
2017-Sep-18 20:00N 17°56' W 066°09'0 0.1
2017-Sep-18 19:30N 17°56' W 066°09'1 1.6
2017-Sep-18 19:00N 17°55' W 066°10'3 5.2
2017-Sep-18 18:30N 17°53' W 066°08'3 0.1
2017-Sep-16 22:35N 17°53' W 066°05'1 5.5
2017-Sep-16 22:28N 17°53' W 066°06'3 5.2
2017-Sep-16 21:57N 17°54' W 066°09'2 4.6
2017-Sep-16 21:30N 17°55' W 066°10'1 1.3
2017-Sep-16 20:48N 17°56' W 066°09'0 0.0
2017-Sep-16 20:30N 17°56' W 066°09'0 0.3
2017-Sep-16 20:00N 17°56' W 066°09'0 0.0
2017-Sep-16 19:30N 17°56' W 066°09'0 0.0
2017-Sep-16 19:00N 17°56' W 066°09'0 0.0
2017-Sep-16 18:30N 17°56' W 066°09'0 0.0
2017-Sep-16 18:00N 17°56' W 066°09'0 0.0
2017-Sep-16 17:30N 17°56' W 066°09'0 0.0
2017-Sep-16 17:00N 17°56' W 066°09'0 0.0
2017-Sep-16 16:30N 17°56' W 066°09'0 0.0
2017-Sep-16 16:00N 17°56' W 066°09'0 0.0
2017-Sep-16 15:27N 17°56' W 066°09'0 0.0
2017-Sep-16 15:00N 17°56' W 066°09'0 0.1
2017-Sep-16 12:25N 17°56' W 066°09'0 0.0
2017-Sep-16 11:58N 17°56' W 066°09'0 0.0
2017-Sep-16 11:28N 17°56' W 066°09'0 0.0
2017-Sep-16 10:58N 17°56' W 066°09'0 0.0
2017-Sep-15 18:04N 17°56' W 066°09'0 0.1
2017-Sep-15 17:58N 17°56' W 066°09'0 0.0
2017-Sep-15 17:28N 17°56' W 066°09'0 0.0
2017-Sep-15 16:58N 17°56' W 066°09'0 0.0
2017-Sep-15 16:28N 17°56' W 066°09'0 0.0
2017-Sep-15 15:58N 17°56' W 066°09'0 0.0
2017-Sep-15 15:28N 17°56' W 066°09'0 0.0
2017-Sep-15 14:58N 17°56' W 066°09'0 0.0
2017-Sep-15 14:28N 17°56' W 066°09'0 0.0
2017-Sep-15 13:52N 17°56' W 066°09'0 0.5
2017-Sep-15 13:30N 17°56' W 066°09'0 0.0
2017-Sep-15 13:00N 17°56' W 066°09'0 0.0
2017-Sep-15 12:30N 17°56' W 066°09'3 5.3
2017-Sep-15 12:00N 17°54' W 066°11'4 8.2
2017-Sep-15 11:30N 17°55' W 066°16'3 5.6
2017-Sep-15 11:00N 17°57' W 066°14'0 0.2
2017-Sep-15 10:29N 17°57' W 066°14'0 0.2
2017-Sep-15 09:55N 17°57' W 066°14'0 0.0
2017-Sep-15 09:25N 17°57' W 066°14'0 0.0
2017-Sep-15 08:55N 17°57' W 066°14'0 0.0
2017-Sep-15 08:25N 17°57' W 066°14'0 0.0
2017-Sep-15 07:55N 17°57' W 066°14'0 0.0
2017-Sep-15 07:25N 17°57' W 066°14'0 0.0
2017-Sep-15 06:58N 17°57' W 066°14'0 0.0
2017-Sep-15 06:28N 17°57' W 066°14'0 0.0
2017-Sep-15 05:58N 17°57' W 066°14'0 0.0
2017-Sep-15 05:13N 17°57' W 066°14'0 0.0
2017-Sep-15 00:28N 17°57' W 066°14'0 0.4
2017-Sep-15 00:00N 17°57' W 066°13'0 0.1
2017-Sep-14 22:06N 17°57' W 066°14'0 0.5
2017-Sep-14 21:58N 17°57' W 066°14'2 3.4
2017-Sep-14 21:31N 17°55' W 066°14'1 2.6
2017-Sep-14 21:01N 17°54' W 066°14'4 7.9
2017-Sep-14 20:27N 17°56' W 066°10'1 0.3
2017-Sep-14 18:39N 17°56' W 066°09'0 1.5
2017-Sep-14 18:30N 17°56' W 066°09'0 0.1
2017-Sep-14 17:44N 17°56' W 066°09'0 0.0
2017-Sep-14 17:20N 17°56' W 066°09'0 0.0
2017-Sep-14 16:59N 17°56' W 066°09'0 0.0
2017-Sep-14 16:29N 17°56' W 066°09'0 0.0
2017-Sep-14 15:59N 17°56' W 066°09'0 0.0
2017-Sep-14 15:29N 17°56' W 066°09'0 0.0
2017-Sep-14 14:59N 17°56' W 066°09'0 0.0
2017-Sep-14 14:26N 17°56' W 066°09'0 0.1
2017-Sep-14 13:59N 17°56' W 066°09'0 0.3
2017-Sep-14 13:28N 17°56' W 066°09'0 0.0
2017-Sep-14 12:58N 17°56' W 066°09'0 0.0
2017-Sep-14 12:28N 17°56' W 066°09'0 0.0
2017-Sep-14 11:58N 17°56' W 066°09'0 0.0
2017-Sep-14 11:28N 17°56' W 066°09'0 0.0
2017-Sep-14 10:37N 17°56' W 066°09'0 0.0
2017-Sep-14 10:22N 17°56' W 066°09'0 0.0
2017-Sep-14 09:52N 17°56' W 066°09'0 0.0
2017-Sep-14 09:28N 17°56' W 066°09'0 0.0
2017-Sep-14 08:58N 17°56' W 066°09'0 0.0
2017-Sep-14 08:28N 17°56' W 066°09'0 0.0
2017-Sep-14 07:58N 17°56' W 066°09'0 0.0
2017-Sep-14 07:28N 17°56' W 066°09'0 0.0
2017-Sep-14 06:46N 17°56' W 066°09'0 0.0
2017-Sep-14 06:28N 17°56' W 066°09'0 0.0
2017-Sep-14 05:58N 17°56' W 066°09'0 0.0
2017-Sep-14 05:16N 17°56' W 066°09'0 0.0
2017-Sep-14 04:52N 17°56' W 066°09'0 0.0
2017-Sep-14 04:28N 17°56' W 066°09'0 0.0
2017-Sep-14 03:58N 17°56' W 066°09'0 0.0
2017-Sep-14 03:22N 17°56' W 066°09'0 0.0
2017-Sep-14 02:58N 17°56' W 066°09'0 0.0
2017-Sep-14 02:28N 17°56' W 066°09'0 0.0
2017-Sep-14 01:58N 17°56' W 066°09'0 0.0
2017-Sep-14 01:28N 17°56' W 066°09'0 0.0
2017-Sep-14 00:58N 17°56' W 066°09'0 0.0
2017-Sep-14 00:28N 17°56' W 066°09'0 0.0
2017-Sep-13 23:58N 17°56' W 066°09'0 0.0
2017-Sep-13 23:28N 17°56' W 066°09'3 6.2
2017-Sep-13 23:01N 17°54' W 066°12'4 8.0
2017-Sep-13 22:31N 17°55' W 066°16'3 5.8
2017-Sep-13 22:00N 17°57' W 066°13'0 0.3
2017-Sep-13 21:30N 17°57' W 066°14'1 1.4
2017-Sep-13 21:00N 17°56' W 066°14'1 3.0
2017-Sep-13 20:30N 17°56' W 066°15'2 3.6
2017-Sep-13 20:00N 17°56' W 066°17'4 8.2
2017-Sep-13 19:30N 17°54' W 066°13'4 0.6
2017-Sep-13 12:43N 17°56' W 066°09'0 0.1
2017-Sep-13 12:15N 17°56' W 066°09'2 7.8
2017-Sep-13 12:00N 17°55' W 066°11'4 8.7
2017-Sep-13 11:30N 17°55' W 066°15'3 4.9
2017-Sep-13 10:59N 17°57' W 066°13'1 1.3
2017-Sep-13 10:30N 17°56' W 066°14'2 4.6
2017-Sep-13 10:00N 17°54' W 066°15'6 0.3
2017-Sep-12 16:09N 17°56' W 066°09'1 7.4
2017-Sep-12 16:00N 17°55' W 066°10'4 8.0
2017-Sep-12 15:30N 17°54' W 066°14'1 2.3
2017-Sep-12 15:00N 17°56' W 066°14'1 1.5
2017-Sep-12 14:30N 17°56' W 066°14'1 1.2
2017-Sep-12 13:54N 17°57' W 066°14'1 3.6
2017-Sep-12 13:30N 17°56' W 066°14'1 2.6
2017-Sep-12 13:00N 17°54' W 066°14'5 0.4
2017-Sep-12 02:01N 17°56' W 066°09'0 0.0
2017-Sep-12 01:34N 17°56' W 066°09'0 4.0
2017-Sep-12 01:30N 17°56' W 066°10'4 8.2
2017-Sep-12 01:01N 17°53' W 066°13'4 8.4
2017-Sep-12 00:31N 17°53' W 066°17'4 8.2
2017-Sep-12 00:00N 17°52' W 066°22'4 8.2
2017-Sep-11 23:31N 17°52' W 066°26'4 8.1
2017-Sep-11 23:01N 17°51' W 066°30'4 7.7
2017-Sep-11 22:30N 17°51' W 066°34'4 7.6
2017-Sep-11 22:01N 17°51' W 066°38'4 8.0
2017-Sep-11 21:31N 17°50' W 066°42'4 8.1
2017-Sep-11 21:00N 17°50' W 066°46'4 0.2
2017-Sep-10 19:37N 17°50' W 066°51'1 5.3
2017-Sep-10 19:28N 17°50' W 066°50'2 5.3
2017-Sep-10 19:00N 17°50' W 066°47'3 5.1
2017-Sep-10 18:31N 17°50' W 066°45'2 4.8
2017-Sep-10 18:01N 17°51' W 066°42'2 4.9
2017-Sep-10 17:31N 17°53' W 066°40'2 4.9
2017-Sep-10 17:01N 17°54' W 066°39'2 3.4
2017-Sep-10 16:31N 17°56' W 066°38'2 3.3
2017-Sep-10 16:01N 17°58' W 066°38'1 1.5
2017-Sep-10 15:31N 17°58' W 066°37'0 0.0
2017-Sep-10 15:01N 17°58' W 066°37'1 1.4
2017-Sep-10 14:01N 17°57' W 066°38'4 7.9
2017-Sep-10 13:30N 17°54' W 066°35'4 8.7
2017-Sep-10 13:01N 17°52' W 066°31'5 9.2
2017-Sep-10 12:31N 17°52' W 066°26'5 9.0
2017-Sep-10 12:01N 17°53' W 066°22'5 9.0
2017-Sep-10 11:31N 17°53' W 066°17'4 8.9
2017-Sep-10 11:00N 17°54' W 066°12'4 7.1
2017-Sep-10 10:29N 17°56' W 066°09'0 0.0
2017-Sep-10 10:01N 17°56' W 066°09'0 0.0
2017-Sep-10 09:30N 17°56' W 066°09'0 0.0
2017-Sep-10 09:01N 17°56' W 066°09'0 0.0
2017-Sep-10 08:30N 17°56' W 066°09'0 0.0
2017-Sep-10 08:00N 17°56' W 066°09'0 0.0
2017-Sep-10 07:31N 17°56' W 066°09'0 0.0
2017-Sep-10 07:01N 17°56' W 066°09'0 0.0
2017-Sep-10 06:30N 17°56' W 066°09'0 0.0
2017-Sep-10 06:01N 17°56' W 066°09'0 0.0
2017-Sep-10 05:30N 17°56' W 066°09'0 0.0
2017-Sep-10 05:00N 17°56' W 066°09'0 0.0
2017-Sep-10 04:31N 17°56' W 066°09'0 0.0
2017-Sep-10 04:00N 17°56' W 066°09'0 0.0
2017-Sep-10 03:31N 17°56' W 066°09'0 0.0
2017-Sep-10 03:01N 17°56' W 066°09'0 0.0
2017-Sep-10 02:31N 17°56' W 066°09'0 0.0
2017-Sep-10 02:01N 17°56' W 066°09'0 0.0
2017-Sep-10 01:31N 17°56' W 066°09'0 0.0
2017-Sep-10 01:01N 17°56' W 066°09'0 0.0
2017-Sep-10 00:31N 17°56' W 066°09'0 0.0
2017-Sep-10 00:00N 17°56' W 066°09'0 0.0
2017-Sep-09 23:31N 17°56' W 066°09'0 0.0
2017-Sep-09 23:00N 17°56' W 066°09'0 0.0
2017-Sep-09 22:31N 17°56' W 066°09'0 0.0
2017-Sep-09 22:00N 17°56' W 066°09'0 0.0
2017-Sep-09 21:30N 17°56' W 066°09'0 0.0
2017-Sep-09 21:00N 17°56' W 066°09'0 0.0
2017-Sep-09 20:31N 17°56' W 066°09'0 0.0
2017-Sep-09 20:01N 17°56' W 066°09'0 0.0
2017-Sep-09 19:31N 17°56' W 066°09'0 0.0
2017-Sep-09 19:00N 17°56' W 066°09'0 0.0
2017-Sep-09 18:30N 17°56' W 066°09'0 0.0
2017-Sep-09 18:00N 17°56' W 066°09'0 0.0
2017-Sep-09 17:30N 17°56' W 066°09'0 0.0
2017-Sep-09 17:00N 17°56' W 066°09'0 0.0
2017-Sep-09 16:30N 17°56' W 066°09'0 0.0
2017-Sep-09 16:00N 17°56' W 066°09'0 0.0
2017-Sep-09 15:30N 17°56' W 066°09'0 0.0
2017-Sep-09 15:01N 17°56' W 066°09'0 0.0
2017-Sep-09 14:31N 17°56' W 066°09'0 0.0
2017-Sep-09 14:01N 17°56' W 066°09'0 0.0
2017-Sep-09 13:31N 17°56' W 066°09'0 0.0
2017-Sep-09 13:01N 17°56' W 066°09'0 0.0
2017-Sep-09 12:30N 17°56' W 066°09'0 0.0
2017-Sep-09 12:00N 17°56' W 066°09'0 0.0
2017-Sep-09 11:30N 17°56' W 066°09'0 0.0
2017-Sep-09 11:01N 17°56' W 066°09'0 0.0
2017-Sep-09 10:31N 17°56' W 066°09'0 0.0
2017-Sep-09 10:00N 17°56' W 066°09'0 0.0
2017-Sep-09 09:31N 17°56' W 066°09'0 0.0
2017-Sep-09 09:00N 17°56' W 066°09'0 0.0
2017-Sep-09 08:30N 17°56' W 066°09'0 0.0
2017-Sep-09 08:00N 17°56' W 066°09'0 0.0
2017-Sep-09 07:31N 17°56' W 066°09'0 0.0
2017-Sep-09 07:00N 17°56' W 066°09'0 0.0
2017-Sep-09 06:31N 17°56' W 066°09'0 0.0
2017-Sep-09 06:00N 17°56' W 066°09'0 0.0
2017-Sep-09 05:30N 17°56' W 066°09'0 0.0
2017-Sep-09 05:00N 17°56' W 066°09'0 0.0
2017-Sep-09 04:30N 17°56' W 066°09'0 0.0
2017-Sep-09 04:00N 17°56' W 066°09'0 0.0
2017-Sep-09 03:30N 17°56' W 066°09'0 0.0
2017-Sep-09 03:01N 17°56' W 066°09'0 0.0
2017-Sep-09 02:30N 17°56' W 066°09'  

Dump ship's entire track history